Brownlee, Nebraska
Current Conditions -  °F | °C
As of 1:15 PM on Friday 21 Nov 2014 (Local Time) from KTIF Reporting Station
Clear Clear  
Wind Chill: 55°   Ceiling: Unl
Heat Index: 55°   Visibility: 10mi
Dew Point: 27°   Wind: 18mph
Humidity: 33%   Direction: 210°SSW
Pressure: 29.89"   Gusts: NA
Location:  41.9263°N, 100.558°W
Report Text: KTIF 211915Z AUTO 21016KT 10SM CLR 13/M03 A2989 RMK AO2 T01301029
Loading
Personal Weather Stations






























Interactive Weather Map New forecast layout! Learn more

10-Day Weather Forecast

Advertisements
Track Severe Weather on mobile